Terminal Aerodrome Forecast
Issued by NWS

Home | Current Version | Previous Version | Text Only | Print | Product List | Glossary On
Versions: 1 2 3 4 5 6 7 8 9 10 11 12 13 14 15 16 17 18 19 20 21 22 23 24 25 26 27 28 29 30 31 32 33 34 35 36 37 38 39
000
FTUS41 KCTP 251720
TAFBFD
TAF
KBFD 251720Z 2518/2618 26010G17KT P6SM VCSH SCT035 BKN050
      TEMPO 2519/2521 30010G20KT 5SM -SHRA OVC035
     FM260000 28005KT P6SM SCT090
     FM260400 27003KT P6SM VCSH SCT030 BKN070
     FM260800 27003KT P6SM BKN030
     FM261400 27010KT P6SM VCSH BKN035=

USA.gov is the U.S. government's official web portal to all federal, state and local government web resources and services.